Altamont, New York
Current Conditions -  °F | °C
As of 7:55 PM on Wednesday 22 Oct 2014 (Local Time) from KSCH Reporting Station
Light Rain Light Rain  
Wind Chill: 52°   Ceiling: 2300
Heat Index: 52°   Visibility: 10mi
Dew Point: 45°   Wind: 12mph
Humidity: 76%   Direction: 10°N
Pressure: 29.99"   Gusts: 23mph
Location:  42.7°N, 74.03°W
Report Text: KSCH 222355Z 01010G20KT 10SM -RA BKN023 OVC034 11/07 A2999
Loading
Personal Weather Stations






























Interactive Weather Map
Tropical Storm Tracking
New forecast layout! Learn more

10-Day Weather Forecast

Advertisements
Track Severe Weather on mobile